createdAt,value
2022-09-15T00:01:42.137Z,16.62
2022-09-15T00:06:44.082Z,16.58
2022-09-15T00:11:46.074Z,16.58
2022-09-15T00:16:47.912Z,16.58
2022-09-15T00:21:50.024Z,16.60
2022-09-15T00:26:51.915Z,16.60
2022-09-15T00:31:53.824Z,16.57
2022-09-15T00:36:55.605Z,16.54
2022-09-15T00:41:57.410Z,16.52
2022-09-15T00:47:18.260Z,16.48
2022-09-15T00:52:36.272Z,16.43
2022-09-15T00:57:56.150Z,16.44
2022-09-15T01:02:59.241Z,16.45
2022-09-15T01:08:10.082Z,16.42
2022-09-15T01:13:14.723Z,16.43
2022-09-15T01:18:22.406Z,16.42
2022-09-15T01:23:42.807Z,16.47
2022-09-15T01:29:21.861Z,16.47
2022-09-15T01:34:25.981Z,16.43
2022-09-15T01:39:35.153Z,16.37
2022-09-15T01:44:47.905Z,16.32
2022-09-15T01:50:11.815Z,16.28
2022-09-15T01:55:27.036Z,16.24
2022-09-15T02:00:32.717Z,16.25
2022-09-15T02:05:45.132Z,16.23
2022-09-15T02:11:13.002Z,16.17
2022-09-15T02:16:22.484Z,16.14
2022-09-15T02:21:33.790Z,16.15
2022-09-15T02:26:39.292Z,16.16
2022-09-15T02:31:43.011Z,16.16
2022-09-15T02:36:46.391Z,16.15
2022-09-15T02:41:49.251Z,16.12
2022-09-15T02:46:51.463Z,16.07
2022-09-15T02:51:53.383Z,16.06
2022-09-15T02:56:55.216Z,16.04
2022-09-15T03:01:59.087Z,16.04
2022-09-15T03:07:00.968Z,16.06
2022-09-15T03:12:02.760Z,16.08
2022-09-15T03:17:04.936Z,16.09
2022-09-15T03:22:07.201Z,16.10
2022-09-15T03:27:09.450Z,16.11
2022-09-15T03:32:11.425Z,16.14
2022-09-15T03:37:13.293Z,16.15
2022-09-15T03:42:15.432Z,16.14
2022-09-15T03:47:17.564Z,16.10
2022-09-15T03:52:19.299Z,16.08
2022-09-15T03:57:21.227Z,16.05
2022-09-15T04:02:23.239Z,16.03
2022-09-15T04:07:25.772Z,16.03
2022-09-15T04:12:29.482Z,16.01
2022-09-15T04:17:31.313Z,15.98
2022-09-15T04:22:33.150Z,16.00
2022-09-15T04:27:36.529Z,16.02
2022-09-15T04:32:38.443Z,16.01
2022-09-15T04:37:40.200Z,15.99
2022-09-15T04:42:41.996Z,15.95
2022-09-15T04:47:43.776Z,15.90
2022-09-15T04:52:45.535Z,15.90
2022-09-15T04:57:47.301Z,15.91
2022-09-15T05:02:49.047Z,15.90
2022-09-15T05:07:51.962Z,15.89
2022-09-15T05:12:54.042Z,15.87
2022-09-15T05:17:55.825Z,15.83
2022-09-15T05:22:57.646Z,15.79
2022-09-15T05:27:59.572Z,15.74
2022-09-15T05:33:01.397Z,15.74
2022-09-15T05:38:03.597Z,15.76
2022-09-15T05:43:05.647Z,15.75
2022-09-15T05:48:07.450Z,15.76
2022-09-15T05:53:09.507Z,15.78
2022-09-15T05:58:11.882Z,15.84
2022-09-15T06:03:15.847Z,15.90
2022-09-15T06:08:17.764Z,15.91
2022-09-15T06:13:19.558Z,15.90
2022-09-15T06:18:21.362Z,15.92
2022-09-15T06:23:23.452Z,15.97
2022-09-15T06:28:25.251Z,16.01
2022-09-15T06:33:27.698Z,16.05
2022-09-15T06:38:30.477Z,16.09
2022-09-15T06:43:33.421Z,16.12
2022-09-15T06:48:36.712Z,16.17
2022-09-15T06:53:39.518Z,16.23
2022-09-15T06:58:43.084Z,16.20
2022-09-15T07:03:44.993Z,16.29
2022-09-15T07:08:48.021Z,16.41
2022-09-15T07:13:50.342Z,16.55
2022-09-15T07:18:55.802Z,16.67
2022-09-15T07:23:58.432Z,16.59
2022-09-15T07:29:02.756Z,16.48
2022-09-15T07:34:05.542Z,16.45
2022-09-15T07:39:07.393Z,16.45
2022-09-15T07:44:11.705Z,16.54
2022-09-15T07:49:13.684Z,16.58
2022-09-15T07:54:20.771Z,16.53
2022-09-15T07:59:24.282Z,16.51
2022-09-15T08:04:26.195Z,16.48
2022-09-15T08:09:28.160Z,16.57
2022-09-15T08:14:31.869Z,16.65
2022-09-15T08:19:35.605Z,16.72
2022-09-15T08:24:37.506Z,16.76
2022-09-15T08:29:39.350Z,16.75
2022-09-15T08:34:41.217Z,16.68
2022-09-15T08:39:43.120Z,16.59
2022-09-15T08:44:48.166Z,16.52
2022-09-15T08:50:14.661Z,16.46
2022-09-15T08:55:45.904Z,16.42
2022-09-15T09:00:51.923Z,16.37
2022-09-15T09:05:57.995Z,16.36
2022-09-15T09:11:10.003Z,16.37
2022-09-15T09:16:56.324Z,16.46
2022-09-15T09:22:23.267Z,16.60
2022-09-15T09:27:32.508Z,16.67
2022-09-15T09:32:40.811Z,16.72
2022-09-15T09:37:43.163Z,16.81
2022-09-15T09:42:45.543Z,16.93
2022-09-15T09:47:47.543Z,17.06
2022-09-15T09:52:49.422Z,17.17
2022-09-15T09:57:51.454Z,17.06
2022-09-15T10:02:53.228Z,17.00
2022-09-15T10:08:03.021Z,16.90
2022-09-15T10:13:04.944Z,16.84
2022-09-15T10:18:07.710Z,16.81
2022-09-15T10:23:18.822Z,16.73
2022-09-15T10:28:23.816Z,16.66
2022-09-15T10:33:28.187Z,16.60
2022-09-15T10:38:37.333Z,16.58
2022-09-15T10:43:41.667Z,16.59
2022-09-15T10:48:53.579Z,16.61
2022-09-15T10:54:07.259Z,16.66
2022-09-15T10:59:28.343Z,16.73
2022-09-15T11:04:32.987Z,16.73
2022-09-15T11:09:48.339Z,16.74
2022-09-15T11:14:58.881Z,16.76
2022-09-15T11:20:14.741Z,16.86
2022-09-15T11:25:24.321Z,16.92
2022-09-15T11:30:35.392Z,16.96
2022-09-15T11:36:02.963Z,16.94
2022-09-15T11:41:17.679Z,16.98
2022-09-15T11:46:28.667Z,17.02
2022-09-15T11:51:36.627Z,17.06
2022-09-15T11:56:47.529Z,17.09
2022-09-15T12:01:59.321Z,17.10
2022-09-15T12:07:20.738Z,17.14
2022-09-15T12:12:24.692Z,17.15
2022-09-15T12:17:52.465Z,17.19
2022-09-15T12:23:07.173Z,17.28
2022-09-15T12:28:24.341Z,17.37
2022-09-15T12:33:57.939Z,17.44
2022-09-15T12:39:02.290Z,17.57
2022-09-15T12:44:36.471Z,17.57
2022-09-15T12:49:44.727Z,17.53
2022-09-15T12:55:02.188Z,17.57
2022-09-15T13:00:23.470Z,17.64
2022-09-15T13:05:44.083Z,17.63
2022-09-15T13:11:22.802Z,17.67
2022-09-15T13:16:33.853Z,17.66
2022-09-15T13:21:39.714Z,17.56
2022-09-15T13:26:44.807Z,17.51
2022-09-15T13:32:01.144Z,17.49
2022-09-15T13:43:24.345Z,17.36
2022-09-15T13:48:43.198Z,17.24
2022-09-15T13:53:58.125Z,17.11
2022-09-15T13:59:10.153Z,17.04
2022-09-15T14:09:26.804Z,16.96
2022-09-15T14:14:28.540Z,16.87
2022-09-15T14:19:35.870Z,16.75
2022-09-15T14:24:40.334Z,16.70
2022-09-15T14:29:45.001Z,16.60
2022-09-15T14:39:57.407Z,16.45
2022-09-15T14:50:34.268Z,16.40
2022-09-15T14:56:00.006Z,16.41
2022-09-15T15:01:22.625Z,16.40
2022-09-15T15:06:49.762Z,16.40
2022-09-15T15:11:55.355Z,16.41
2022-09-15T15:17:06.120Z,16.46
2022-09-15T15:22:14.184Z,16.46
2022-09-15T15:27:34.089Z,16.49
2022-09-15T15:32:35.943Z,16.45
2022-09-15T15:37:37.683Z,16.45
2022-09-15T15:42:59.265Z,16.44
2022-09-15T15:48:04.073Z,16.40
2022-09-15T15:53:05.947Z,16.39
2022-09-15T15:58:10.382Z,16.36
2022-09-15T16:03:13.748Z,16.38
2022-09-15T16:08:26.901Z,16.37
2022-09-15T16:13:29.395Z,16.40
2022-09-15T16:18:31.424Z,16.41
2022-09-15T16:23:33.290Z,16.43
2022-09-15T16:28:35.261Z,16.44
2022-09-15T16:33:38.265Z,16.45
2022-09-15T16:38:43.982Z,16.42
2022-09-15T16:43:47.052Z,16.39
2022-09-15T16:48:48.932Z,16.37
2022-09-15T16:53:54.186Z,16.36
2022-09-15T16:59:00.249Z,16.33
2022-09-15T17:04:03.812Z,16.31
2022-09-15T17:09:05.628Z,16.29
2022-09-15T17:14:12.482Z,16.28
2022-09-15T17:19:14.265Z,16.28
2022-09-15T17:24:17.510Z,16.29
2022-09-15T17:29:19.272Z,16.27
2022-09-15T17:34:21.108Z,16.26
2022-09-15T17:39:23.182Z,16.25
2022-09-15T17:44:25.042Z,16.22
2022-09-15T17:49:27.484Z,16.17
2022-09-15T17:54:31.315Z,16.14
2022-09-15T17:59:33.194Z,16.10
2022-09-15T18:04:35.023Z,16.06
2022-09-15T18:09:37.030Z,16.00
2022-09-15T18:14:39.230Z,15.94
2022-09-15T18:19:41.220Z,15.91
2022-09-15T18:24:43.097Z,15.87
2022-09-15T18:29:44.967Z,15.83
2022-09-15T18:34:47.670Z,15.76
2022-09-15T18:39:49.537Z,15.75
2022-09-15T18:44:51.561Z,15.75
2022-09-15T18:49:54.131Z,15.75
2022-09-15T18:54:55.967Z,15.73
2022-09-15T18:59:57.821Z,15.71
2022-09-15T19:04:59.567Z,15.65
2022-09-15T19:10:01.754Z,15.64
2022-09-15T19:15:12.098Z,15.63
2022-09-15T19:20:15.743Z,15.60
2022-09-15T19:25:17.643Z,15.58
2022-09-15T19:30:19.751Z,15.58
2022-09-15T19:35:21.611Z,15.56
2022-09-15T19:40:23.943Z,15.55
2022-09-15T19:45:25.862Z,15.57
2022-09-15T19:50:27.931Z,15.55
2022-09-15T19:55:29.803Z,15.57
2022-09-15T20:00:31.601Z,15.56
2022-09-15T20:05:33.336Z,15.56
2022-09-15T20:10:35.091Z,15.54
2022-09-15T20:15:37.090Z,15.53
2022-09-15T20:20:40.311Z,15.52
2022-09-15T20:25:42.261Z,15.51
2022-09-15T20:30:44.003Z,15.52
2022-09-15T20:35:46.044Z,15.52
2022-09-15T20:40:47.963Z,15.53
2022-09-15T20:46:03.884Z,15.54
2022-09-15T20:51:08.611Z,15.55
2022-09-15T20:56:10.544Z,15.57
2022-09-15T21:01:16.005Z,15.56
2022-09-15T21:06:20.121Z,15.57
2022-09-15T21:11:24.031Z,15.57
2022-09-15T21:16:28.273Z,15.52
2022-09-15T21:21:32.663Z,15.44
2022-09-15T21:26:57.526Z,15.35
2022-09-15T21:31:59.680Z,15.26
2022-09-15T21:37:01.497Z,15.19
2022-09-15T21:42:05.324Z,15.15
2022-09-15T21:47:07.107Z,15.13
2022-09-15T21:52:09.502Z,15.14
2022-09-15T21:57:11.286Z,15.17
2022-09-15T22:02:13.366Z,15.18
2022-09-15T22:07:19.514Z,15.14
2022-09-15T22:12:21.252Z,15.13
2022-09-15T22:17:23.075Z,15.13
2022-09-15T22:22:25.350Z,15.09
2022-09-15T22:27:27.247Z,15.09
2022-09-15T22:32:30.413Z,15.10
2022-09-15T22:37:33.788Z,15.10
2022-09-15T22:42:35.653Z,15.11
2022-09-15T22:47:37.483Z,15.11
2022-09-15T22:52:39.473Z,15.10
2022-09-15T22:57:41.793Z,15.10
2022-09-15T23:02:44.351Z,15.09
2022-09-15T23:07:46.217Z,15.09
2022-09-15T23:12:48.022Z,15.10
2022-09-15T23:17:49.855Z,15.09
2022-09-15T23:22:52.571Z,15.08
2022-09-15T23:27:54.437Z,15.07
2022-09-15T23:32:56.302Z,15.07
2022-09-15T23:37:59.316Z,15.07
2022-09-15T23:43:01.407Z,15.07
2022-09-15T23:48:10.678Z,15.04
2022-09-15T23:53:12.917Z,15.03
2022-09-15T23:58:14.752Z,15.01
